createdAt,value
2023-04-21T06:18:43.179Z,73.11
2023-04-21T06:21:11.115Z,73.12
2023-04-21T06:23:38.111Z,73.17
2023-04-21T06:26:07.030Z,73.84
2023-04-21T06:28:35.158Z,73.58
2023-04-21T06:31:03.038Z,73.89
2023-04-21T06:33:30.233Z,74.50
2023-04-21T06:35:57.158Z,74.75
2023-04-21T06:38:24.008Z,73.18
2023-04-21T06:40:51.422Z,73.71
2023-04-21T06:43:18.247Z,74.11
2023-04-21T06:45:45.171Z,73.07
2023-04-21T06:48:12.043Z,74.35
2023-04-21T06:50:38.921Z,74.04
2023-04-21T06:53:05.826Z,75.41
2023-04-21T06:55:32.643Z,75.33
2023-04-21T06:57:59.485Z,75.13
2023-04-21T07:00:26.366Z,73.85
2023-04-21T07:02:53.205Z,73.53
2023-04-21T07:05:20.110Z,73.43
2023-04-21T07:07:46.928Z,74.71
2023-04-21T07:10:19.378Z,73.42
2023-04-21T07:12:46.579Z,73.30
2023-04-21T07:15:13.599Z,73.03
2023-04-21T07:17:40.516Z,73.47
2023-04-21T07:20:08.170Z,74.24
2023-04-21T07:22:36.329Z,73.11
2023-04-21T07:25:06.512Z,73.83
2023-04-21T07:27:37.902Z,72.81
2023-04-21T07:30:10.616Z,72.23
2023-04-21T07:32:39.240Z,72.44
2023-04-21T07:35:14.855Z,72.04
2023-04-21T07:37:42.128Z,72.00
2023-04-21T07:40:09.494Z,71.59
2023-04-21T07:42:36.390Z,69.67
2023-04-21T07:45:04.224Z,68.32
2023-04-21T07:47:31.612Z,67.43
2023-04-21T07:49:58.735Z,68.19
2023-04-21T07:52:25.705Z,68.31
2023-04-21T07:54:52.760Z,66.80
2023-04-21T07:57:19.590Z,68.04
2023-04-21T07:59:46.612Z,68.10
2023-04-21T08:02:13.768Z,66.80
2023-04-21T08:04:40.828Z,66.61
2023-04-21T08:07:07.918Z,66.25
2023-04-21T08:09:34.773Z,66.76
2023-04-21T08:12:02.530Z,66.51
2023-04-21T08:14:29.416Z,65.64
2023-04-21T08:16:57.261Z,64.88
2023-04-21T08:19:24.402Z,64.78
2023-04-21T08:21:51.422Z,64.78
2023-04-21T08:24:18.694Z,64.76
2023-04-21T08:26:45.882Z,64.23
2023-04-21T08:29:13.584Z,64.08
2023-04-21T08:31:40.517Z,64.46
2023-04-21T08:34:07.515Z,64.11
2023-04-21T08:36:34.794Z,64.43
2023-04-21T08:39:01.822Z,63.67
2023-04-21T08:41:28.657Z,64.91
2023-04-21T08:43:55.881Z,64.39
2023-04-21T08:46:23.658Z,64.74
2023-04-21T08:48:51.386Z,63.59
2023-04-21T08:51:23.477Z,64.32
2023-04-21T08:53:50.417Z,64.08
2023-04-21T08:56:17.329Z,62.99
2023-04-21T08:58:44.121Z,62.95
2023-04-21T09:01:12.360Z,61.82
2023-04-21T09:03:39.463Z,61.97
2023-04-21T09:06:08.870Z,61.69
2023-04-21T09:08:43.377Z,63.15
2023-04-21T09:11:14.360Z,62.93
2023-04-21T09:13:43.303Z,62.02
2023-04-21T09:16:21.763Z,61.26
2023-04-21T09:18:50.263Z,62.38
2023-04-21T09:21:19.280Z,61.51
2023-04-21T09:23:51.612Z,61.27
2023-04-21T09:26:19.936Z,61.11
2023-04-21T09:28:48.284Z,60.24
2023-04-21T09:31:25.205Z,59.82
2023-04-21T09:33:59.359Z,58.93
2023-04-21T09:36:31.285Z,59.63
2023-04-21T09:41:31.969Z,60.02
2023-04-21T09:44:02.056Z,59.61
2023-04-21T09:46:30.296Z,60.48
2023-04-21T09:48:58.934Z,59.85
2023-04-21T09:51:42.722Z,60.14
2023-04-21T09:56:50.511Z,59.84
2023-04-21T09:59:22.991Z,58.48
2023-04-21T10:01:51.814Z,57.67
2023-04-21T10:04:19.344Z,58.13
2023-04-21T10:06:48.400Z,58.70
2023-04-21T10:09:16.837Z,58.01
2023-04-21T10:11:43.876Z,56.96
2023-04-21T10:14:10.761Z,56.63
2023-04-21T10:16:40.529Z,57.45
2023-04-21T10:19:27.880Z,57.60
2023-04-21T10:21:57.959Z,57.53
2023-04-21T10:24:25.102Z,56.42
2023-04-21T10:26:54.620Z,56.27
2023-04-21T10:29:43.691Z,56.63
2023-04-21T10:32:11.456Z,55.36
2023-04-21T10:34:38.894Z,55.75
2023-04-21T10:37:05.679Z,56.13
2023-04-21T10:39:36.463Z,55.95
2023-04-21T10:42:21.062Z,53.99
2023-04-21T10:44:56.817Z,53.33
2023-04-21T10:47:41.557Z,53.08
2023-04-21T10:50:39.663Z,53.58
2023-04-21T10:53:13.311Z,54.26
2023-04-21T10:55:42.440Z,54.02
2023-04-21T10:58:10.023Z,54.00
2023-04-21T11:00:40.458Z,54.46
2023-04-21T11:03:08.635Z,53.62
2023-04-21T11:05:38.659Z,53.42
2023-04-21T11:08:11.661Z,52.42
2023-04-21T11:10:55.272Z,51.97
2023-04-21T11:13:27.574Z,50.75
2023-04-21T11:15:59.461Z,52.10
2023-04-21T11:18:43.099Z,51.25
2023-04-21T11:21:22.156Z,49.99
2023-04-21T11:23:56.473Z,51.06
2023-04-21T11:26:33.892Z,51.54
2023-04-21T11:29:06.233Z,53.07
2023-04-21T11:31:33.429Z,52.65
2023-04-21T11:34:01.292Z,53.28
2023-04-21T11:36:28.197Z,53.05
2023-04-21T11:38:55.086Z,53.10
2023-04-21T11:41:25.649Z,53.20
2023-04-21T11:43:53.074Z,53.62
2023-04-21T11:46:25.380Z,53.92
2023-04-21T11:49:11.095Z,53.60
2023-04-21T11:51:39.692Z,54.42
2023-04-21T11:54:08.619Z,54.19
2023-04-21T11:56:38.123Z,54.47
2023-04-21T11:59:12.272Z,55.24
2023-04-21T12:01:50.165Z,55.79
2023-04-21T12:04:19.183Z,55.30
2023-04-21T12:06:47.146Z,54.47
2023-04-21T12:09:19.066Z,55.24
2023-04-21T12:11:50.761Z,55.67
2023-04-21T12:14:22.695Z,55.04
2023-04-21T12:16:51.561Z,55.47
2023-04-21T12:19:41.084Z,56.27
2023-04-21T12:22:09.711Z,55.24
2023-04-21T12:24:37.288Z,55.29
2023-04-21T12:27:04.737Z,55.40
2023-04-21T12:29:31.600Z,55.10
2023-04-21T12:31:58.457Z,55.28
2023-04-21T12:34:25.484Z,53.93
2023-04-21T12:36:52.339Z,53.61
2023-04-21T12:39:19.734Z,53.65
2023-04-21T12:41:47.818Z,54.28
2023-04-21T12:44:15.268Z,54.16
2023-04-21T12:46:42.237Z,53.00
2023-04-21T12:49:10.168Z,53.83
2023-04-21T12:51:37.296Z,54.29
2023-04-21T12:54:04.207Z,53.97
2023-04-21T12:56:31.744Z,53.87
2023-04-21T12:58:58.852Z,53.96
2023-04-21T13:01:25.780Z,53.75
2023-04-21T13:03:52.922Z,53.61
2023-04-21T13:06:19.962Z,54.09
2023-04-21T13:08:46.849Z,53.98
2023-04-21T13:11:14.013Z,53.58
2023-04-21T13:13:40.819Z,53.77
2023-04-21T13:16:07.709Z,52.88
2023-04-21T13:18:35.250Z,53.47
2023-04-21T13:21:02.408Z,52.65
2023-04-21T13:23:29.765Z,52.22
2023-04-21T13:25:56.942Z,53.12
2023-04-21T13:28:23.803Z,53.33
2023-04-21T13:30:54.266Z,53.80
2023-04-21T13:33:21.661Z,54.22
2023-04-21T13:35:49.034Z,52.89
2023-04-21T13:38:17.231Z,52.95
2023-04-21T13:40:45.757Z,53.46
2023-04-21T13:43:12.574Z,53.45
2023-04-21T13:45:39.563Z,54.28
2023-04-21T13:48:06.463Z,54.08
2023-04-21T13:50:33.321Z,53.81
2023-04-21T13:53:00.172Z,54.17
2023-04-21T13:55:27.053Z,54.02
2023-04-21T13:57:53.859Z,53.84
2023-04-21T14:00:20.819Z,54.30
2023-04-21T14:02:48.829Z,54.42
2023-04-21T14:05:16.377Z,54.24
2023-04-21T14:07:43.663Z,54.32
2023-04-21T14:10:12.176Z,54.93
2023-04-21T14:12:39.078Z,54.91
2023-04-21T14:15:07.059Z,54.50
2023-04-21T14:17:34.164Z,53.65
2023-04-21T14:20:01.069Z,53.27
2023-04-21T14:22:28.571Z,52.27
2023-04-21T14:24:55.559Z,53.38
2023-04-21T14:27:22.351Z,53.43
2023-04-21T14:29:49.201Z,53.18
2023-04-21T14:32:16.043Z,53.87
2023-04-21T14:34:42.942Z,52.71
2023-04-21T14:37:09.780Z,53.01
2023-04-21T14:39:36.698Z,51.86
2023-04-21T14:42:03.631Z,52.73
2023-04-21T14:44:30.583Z,53.10
2023-04-21T14:47:08.323Z,52.93
2023-04-21T14:49:36.904Z,53.17
2023-04-21T14:52:03.971Z,53.80
2023-04-21T14:54:30.910Z,54.11
2023-04-21T14:57:10.427Z,54.40
2023-04-21T14:59:46.961Z,54.31
2023-04-21T15:02:14.358Z,54.02
2023-04-21T15:04:41.521Z,53.04
2023-04-21T15:07:08.506Z,52.94
2023-04-21T15:09:36.600Z,52.82
2023-04-21T15:12:03.683Z,53.06
2023-04-21T15:14:30.873Z,52.68
2023-04-21T15:16:59.064Z,52.53
2023-04-21T15:19:26.012Z,52.91
2023-04-21T15:21:52.998Z,52.09
2023-04-21T15:24:19.819Z,52.47
2023-04-21T15:26:46.639Z,53.19
2023-04-21T15:29:13.618Z,51.97
2023-04-21T15:31:40.833Z,51.95
2023-04-21T15:34:07.704Z,52.05
2023-04-21T15:36:34.608Z,53.15
2023-04-21T15:39:01.528Z,52.91
2023-04-21T15:41:31.356Z,53.40
2023-04-21T15:43:58.893Z,53.39
2023-04-21T15:46:25.940Z,52.77
2023-04-21T15:48:52.919Z,52.56
2023-04-21T15:51:19.830Z,52.91
2023-04-21T15:53:49.834Z,52.80
2023-04-21T15:56:17.367Z,53.52
2023-04-21T15:58:44.449Z,52.51
2023-04-21T16:01:11.534Z,53.25
2023-04-21T16:03:40.473Z,53.51
2023-04-21T16:06:07.900Z,52.94
2023-04-21T16:08:34.822Z,53.55
2023-04-21T16:11:02.098Z,53.45
2023-04-21T16:13:29.315Z,53.81
2023-04-21T16:15:56.787Z,53.57
2023-04-21T16:18:23.766Z,53.59
2023-04-21T16:20:50.706Z,54.16
2023-04-21T16:23:17.714Z,54.23
2023-04-21T16:25:44.907Z,54.10
2023-04-21T16:28:11.895Z,54.09
2023-04-21T16:30:43.489Z,54.46
2023-04-21T16:33:14.636Z,54.17
2023-04-21T16:35:41.679Z,55.11
2023-04-21T16:38:08.633Z,55.37
2023-04-21T16:40:35.537Z,54.48
2023-04-21T16:43:02.465Z,54.24
2023-04-21T16:45:30.015Z,54.82
2023-04-21T16:47:57.516Z,54.55
2023-04-21T16:50:24.574Z,55.23
2023-04-21T16:52:51.422Z,56.18
2023-04-21T16:55:18.709Z,55.84
2023-04-21T16:57:45.575Z,56.12
2023-04-21T17:00:13.126Z,55.73
2023-04-21T17:02:40.255Z,55.58
2023-04-21T17:05:07.419Z,56.49
2023-04-21T17:07:34.775Z,56.50
2023-04-21T17:10:01.791Z,56.70
2023-04-21T17:12:28.653Z,56.09
2023-04-21T17:14:55.477Z,56.75
2023-04-21T17:17:22.546Z,56.70
2023-04-21T17:19:49.820Z,57.75
2023-04-21T17:22:16.651Z,58.19
2023-04-21T17:24:52.458Z,57.42
2023-04-21T17:27:20.353Z,57.58
2023-04-21T17:29:47.237Z,56.81
2023-04-21T17:32:14.623Z,57.99
2023-04-21T17:34:41.568Z,57.21
2023-04-21T17:37:08.457Z,58.02
2023-04-21T17:39:35.307Z,59.72
2023-04-21T17:42:02.895Z,59.71
2023-04-21T17:44:30.011Z,60.20
2023-04-21T17:46:58.344Z,59.92
2023-04-21T17:49:25.563Z,60.72
2023-04-21T17:51:53.193Z,61.69
2023-04-21T17:54:20.043Z,60.75
2023-04-21T17:56:46.984Z,61.57
2023-04-21T17:59:14.453Z,62.14
2023-04-21T18:01:41.569Z,63.33
2023-04-21T18:04:08.733Z,62.42
2023-04-21T18:06:36.501Z,62.93
2023-04-21T18:09:05.302Z,63.23
2023-04-21T18:11:32.285Z,63.06
2023-04-21T18:13:59.316Z,63.88
2023-04-21T18:16:26.740Z,63.20
2023-04-21T18:18:53.776Z,64.14
2023-04-21T18:21:21.369Z,63.79
2023-04-21T18:23:49.356Z,64.41
2023-04-21T18:26:16.246Z,64.81
2023-04-21T18:28:43.085Z,64.39
2023-04-21T18:31:09.981Z,64.05
2023-04-21T18:33:36.809Z,64.11
2023-04-21T18:36:03.841Z,65.44
2023-04-21T18:38:30.779Z,64.85
2023-04-21T18:40:57.651Z,65.43
2023-04-21T18:43:24.693Z,66.19
2023-04-21T18:45:51.475Z,66.39
2023-04-21T18:48:18.324Z,67.39
2023-04-21T18:50:45.323Z,67.32
2023-04-21T18:53:12.097Z,67.55
2023-04-21T18:55:38.945Z,68.01
2023-04-21T18:58:06.269Z,68.47
2023-04-21T19:00:37.509Z,69.97
2023-04-21T19:03:06.280Z,70.80
2023-04-21T19:05:34.989Z,70.72
2023-04-21T19:08:01.975Z,69.56
2023-04-21T19:10:29.067Z,70.30
2023-04-21T19:12:56.076Z,71.56
2023-04-21T19:15:23.033Z,71.04
2023-04-21T19:17:49.857Z,70.59
2023-04-21T19:20:18.292Z,71.21
2023-04-21T19:22:45.326Z,72.65
2023-04-21T19:25:12.593Z,71.33
2023-04-21T19:27:40.942Z,72.34
2023-04-21T19:30:08.647Z,72.37
2023-04-21T19:32:35.513Z,70.95
2023-04-21T19:35:02.592Z,70.77
2023-04-21T19:37:29.445Z,70.49
2023-04-21T19:39:56.356Z,70.84
2023-04-21T19:42:23.290Z,72.93
2023-04-21T19:44:50.076Z,73.80
2023-04-21T19:47:16.884Z,73.41
2023-04-21T19:49:43.860Z,73.00
2023-04-21T19:52:10.742Z,73.57
2023-04-21T19:54:37.837Z,73.95
2023-04-21T19:57:04.970Z,73.95
